Prestatyn, United Kingdom
Current Conditions -  °F | °C
As of 2:50 PM on Saturday 20 Dec 2014 (Local Time) from EGNR Reporting Station
Scattered Clouds Scattered Clouds  
Wind Chill: 42°   Ceiling: Unl
Heat Index: 48°   Visibility: 6mi
Dew Point: 41°   Wind: 15mph
Humidity: 76%   Direction: 290°WNW
Pressure: 30.33"   Gusts: NA
Location:  53.34°N, 3.41°W
Report Text: EGNR 201450Z 29013KT 9999 FEW020 SCT032 09/05 Q1027
Loading
Personal Weather Stations






























Interactive Weather Map New forecast layout! Learn more

10-Day Weather Forecast

Advertisements
Track Severe Weather on mobile